ADDS METAR Data INFO
IDs: Format: Raw Decoded Include TAF

Data at: 0611 UTC 25 Jun 2018

PAII 250556Z AUTO 32007KT 10SM CLR 11/06 A2997 RMK AO2 SLP153 T01060056 10122 20106 56006
PAII 250456Z AUTO 29006KT 10SM CLR 11/06 A2998 RMK AO2 SLP156 T01110056
PAII 250356Z AUTO 30006KT 10SM CLR 12/06 A2998 RMK AO2 SLP156 T01170056
PAII 250256Z AUTO 30009KT 10SM CLR 12/06 A2999 RMK AO2 SLP159 T01220056 58015
PAII 250156Z AUTO 28008KT 10SM CLR 12/06 A3001 RMK AO2 SLP164 T01220061
PAII 250056Z AUTO 28008KT 10SM CLR 12/06 A3002 RMK AO2 SLP170 T01220061
PAII 242356Z AUTO 28011KT 10SM CLR 12/06 A3004 RMK AO2 SLP174 T01220061 10122 20111 58013
PAII 242256Z AUTO 28008KT 10SM FEW011 12/07 A3005 RMK AO2 SLP179 T01170067
PAII 242156Z AUTO 26010KT 10SM CLR 12/07 A3006 RMK AO2 SLP183 T01220072
PAII 242056Z AUTO 27008KT 10SM FEW011 12/07 A3008 RMK AO2 SLP188 T01170072 50001
PAII 241956Z AUTO 27009KT 10SM CLR 12/07 A3008 RMK AO2 SLP188 T01170072
PAII 241856Z AUTO 26008KT 10SM CLR 12/08 A3007 RMK AO2 SLP187 T01170078
PAII 241756Z AUTO 27007KT 10SM SCT010 OVC075 11/08 A3007 RMK AO2 SLP187 T01110078 10111 20089 56004
PAII 241723Z AUTO 25007KT 10SM BKN008 OVC075 11/08 A3007 RMK AO2
PAII 241656Z AUTO 24005KT 10SM SCT008 OVC080 11/08 A3007 RMK AO2 SLP187 T01110083
PAII 241635Z AUTO 26005KT 10SM FEW008 OVC075 11/08 A3007 RMK AO2
PAII 241556Z AUTO 26006KT 10SM OVC075 11/08 A3008 RMK AO2 SLP188 T01060078
PAII 241256Z AUTO 28007KT 10SM OVC070 09/07 A3009 RMK AO2 SLP194 T00940072
PAII 241156Z AUTO 27006KT 10SM FEW060 BKN075 09/08 A3010 RMK AO2 SLP195 T00890078 10111 20089 58001
PAII 241056Z AUTO 26008KT 10SM SCT007 OVC080 09/08 A3010 RMK AO2 SLP198 T00940078
PAII 241042Z AUTO 26008KT 10SM BKN007 BKN065 OVC080 09/08 A3010 RMK AO2
PAII 241025Z AUTO 26007KT 10SM FEW007 BKN055 OVC075 09/08 A3011 RMK AO2
PAII 240956Z AUTO 27007KT 10SM OVC070 10/08 A3011 RMK AO2 SLP199 T01000078
PAII 240856Z AUTO 27007KT 9SM OVC070 10/07 A3010 RMK AO2 SLP196 T01000067 56003
PAII 240756Z AUTO 28009KT 10SM OVC070 10/08 A3010 RMK AO2 SLP197 T01000078 401440072
PAII 240656Z AUTO 28006KT 10SM OVC075 10/08 A3010 RMK AO2 SLP197 T01000083
PAII 240556Z AUTO 27008KT 10SM OVC070 11/07 A3011 RMK AO2 SLP199 T01110072 10144 20111 58000
PAII 240456Z AUTO 28008KT 10SM OVC075 13/07 A3011 RMK AO2 SLP199 T01280067
PAII 240356Z AUTO 29009KT 10SM OVC065 13/06 A3011 RMK AO2 SLP199 T01280056
PAII 240256Z AUTO 28010KT 10SM BKN070 13/06 A3011 RMK AO2 SLP199 T01280061 56003
PAII 240156Z AUTO 29008KT 10SM OVC060 13/06 A3011 RMK AO2 SLP200 T01280061
PAII 240056Z AUTO 28009KT 10SM OVC060 13/06 A3011 RMK AO2 SLP200 T01330061
PAII 232356Z AUTO 29009KT 10SM SCT065 13/06 A3012 RMK AO2 SLP202 60000 T01330061 10139 20100 58005
PAII 232256Z AUTO 28007KT 10SM SCT042 OVC065 13/07 A3012 RMK AO2 SLP205 T01280067
PAII 232156Z AUTO VRB05KT 10SM OVC060 12/07 A3013 RMK AO2 SLP205 T01220067
PAII 232056Z AUTO 00000KT 10SM OVC036 12/05 A3013 RMK AO2 SLP206 60000 T01170050 58001
PAII 231956Z AUTO VRB03KT 10SM SCT040 OVC048 12/06 A3013 RMK AO2 RAE47 SLP206 P0000 T01170061
PAII 231856Z AUTO 00000KT 10SM -RA OVC041 11/07 A3014 RMK AO2 RAB49 SLP210 P0000 T01110072